TimePDT,TemperatureF,Dew PointF,Humidity,Sea Level PressureIn,VisibilityMPH,Wind Direction,Wind SpeedMPH,Gust SpeedMPH,PrecipitationIn,Events,Conditions,WindDirDegrees,DateUTC
12:53 AM,66.9,46.9,49,29.84,10.0,Calm,Calm,-,N/A,,Clear,0,2013-07-11 07:53:00
1:53 AM,66.0,46.0,48,29.85,10.0,NNW,4.6,-,N/A,,Clear,330,2013-07-11 08:53:00
2:53 AM,64.9,45.0,48,29.85,10.0,NNW,6.9,-,N/A,,Clear,330,2013-07-11 09:53:00
3:53 AM,55.9,46.0,69,29.87,10.0,West,4.6,-,N/A,,Clear,270,2013-07-11 10:53:00
4:53 AM,54.0,45.0,72,29.88,10.0,WNW,4.6,-,N/A,,Clear,290,2013-07-11 11:53:00
5:53 AM,54.0,46.0,75,29.89,10.0,West,8.1,-,N/A,,Clear,260,2013-07-11 12:53:00
6:53 AM,63.0,46.0,54,29.90,10.0,West,3.5,-,N/A,,Clear,260,2013-07-11 13:53:00
7:53 AM,70.0,43.0,38,29.89,10.0,North,6.9,-,N/A,,Clear,350,2013-07-11 14:53:00
8:53 AM,73.0,39.9,30,29.89,10.0,North,9.2,-,N/A,,Clear,350,2013-07-11 15:53:00
9:53 AM,75.9,39.9,27,29.89,10.0,North,6.9,-,N/A,,Clear,360,2013-07-11 16:53:00
10:53 AM,79.0,35.1,20,29.88,10.0,Calm,Calm,-,N/A,,Clear,0,2013-07-11 17:53:00
11:53 AM,82.0,34.0,18,29.88,10.0,NW,5.8,-,N/A,,Clear,310,2013-07-11 18:53:00
12:53 PM,84.0,28.9,14,29.86,10.0,Calm,Calm,-,N/A,,Clear,0,2013-07-11 19:53:00
1:53 PM,84.9,27.0,12,29.85,10.0,Calm,Calm,-,N/A,,Clear,0,2013-07-11 20:53:00
2:53 PM,87.1,30.0,13,29.83,10.0,East,4.6,-,N/A,,Clear,80,2013-07-11 21:53:00
3:53 PM,89.1,32.0,13,29.82,10.0,West,6.9,-,N/A,,Clear,270,2013-07-11 22:53:00
4:53 PM,87.1,30.9,13,29.81,10.0,NNE,13.8,-,N/A,,Clear,30,2013-07-11 23:53:00
5:53 PM,86.0,32.0,14,29.81,10.0,North,13.8,-,N/A,,Clear,360,2013-07-12 00:53:00
6:53 PM,82.9,33.1,17,29.81,10.0,North,18.4,23.0,N/A,,Clear,10,2013-07-12 01:53:00
7:53 PM,79.0,37.0,22,29.82,10.0,NNW,15.0,-,N/A,,Clear,340,2013-07-12 02:53:00
8:53 PM,73.0,39.0,29,29.84,10.0,NW,9.2,-,N/A,,Clear,320,2013-07-12 03:53:00
9:53 PM,70.0,41.0,35,29.86,10.0,NW,12.7,-,N/A,,Clear,310,2013-07-12 04:53:00
10:53 PM,68.0,43.0,40,29.87,10.0,NNW,12.7,-,N/A,,Clear,340,2013-07-12 05:53:00
11:53 PM,66.9,43.0,42,29.88,10.0,WNW,5.8,-,N/A,,Clear,300,2013-07-12 06:53:00